AMX161 MMGL-MMAA
Flight info
| Callsign | AMX161 |
|---|---|
| Flight time | N/A |
| Altitude | 35000 |
| Route | EMIRI1B EMIRI DCT ZIH J1 AVURO AVURO1B |
| Aircraft | B738/M-SDE2E3FGHIRWXY/LB1 |
Departure
| Time | 2026-05-06 02:43 |
|---|---|
| Airport | Guadalajara International Airport (MMGL) |
Arrival
| Time | N/A |
|---|---|
| Airport | General Juan N. Álvarez International Airport (MMAA) |
| Time | Latitude | Longitude | Altitude | Speed | Heading |
|---|---|---|---|---|---|
| 2026-05-06 02:08 | 20.52372 | -103.29950 | 5028 ft | 0 kts | 18° |
| 2026-05-06 02:27 | 20.52369 | -103.29951 | 5028 ft | 2 kts | 19° |
| 2026-05-06 02:27 | 20.52364 | -103.29952 | 5028 ft | 0 kts | 18° |
| 2026-05-06 02:27 | 20.52360 | -103.29954 | 5028 ft | 2 kts | 18° |
| 2026-05-06 02:27 | 20.52347 | -103.29962 | 5029 ft | 2 kts | 51° |
| 2026-05-06 02:28 | 20.52340 | -103.29977 | 5029 ft | 2 kts | 75° |
| 2026-05-06 02:28 | 20.52338 | -103.29992 | 5029 ft | 2 kts | 100° |
| 2026-05-06 02:28 | 20.52340 | -103.30000 | 5029 ft | 1 kts | 115° |
| 2026-05-06 02:28 | 20.52342 | -103.30004 | 5029 ft | 0 kts | 111° |
| 2026-05-06 02:31 | 20.52342 | -103.30003 | 5028 ft | 1 kts | 111° |
| 2026-05-06 02:31 | 20.52334 | -103.29983 | 5028 ft | 2 kts | 111° |
| 2026-05-06 02:32 | 20.52331 | -103.29976 | 5028 ft | 0 kts | 112° |
| 2026-05-06 02:34 | 20.52328 | -103.29967 | 5028 ft | 2 kts | 121° |
| 2026-05-06 02:34 | 20.52297 | -103.29975 | 5029 ft | 6 kts | 236° |
| 2026-05-06 02:34 | 20.52280 | -103.30003 | 5029 ft | 3 kts | 237° |
| 2026-05-06 02:35 | 20.52267 | -103.30026 | 5029 ft | 2 kts | 236° |
| 2026-05-06 02:35 | 20.52260 | -103.30035 | 5029 ft | 0 kts | 233° |
| 2026-05-06 02:35 | 20.52248 | -103.30047 | 5029 ft | 4 kts | 215° |
| 2026-05-06 02:35 | 20.52229 | -103.30058 | 5029 ft | 1 kts | 206° |
| 2026-05-06 02:36 | 20.52222 | -103.30061 | 5029 ft | 0 kts | 202° |
| 2026-05-06 02:36 | 20.52217 | -103.30063 | 5029 ft | 2 kts | 193° |
| 2026-05-06 02:36 | 20.52201 | -103.30061 | 5029 ft | 1 kts | 165° |
| 2026-05-06 02:36 | 20.52175 | -103.30039 | 5029 ft | 8 kts | 131° |
| 2026-05-06 02:37 | 20.52144 | -103.29964 | 5029 ft | 11 kts | 99° |
| 2026-05-06 02:37 | 20.52115 | -103.29901 | 5029 ft | 7 kts | 117° |
| 2026-05-06 02:37 | 20.52096 | -103.29860 | 5029 ft | 4 kts | 116° |
| 2026-05-06 02:37 | 20.52082 | -103.29829 | 5029 ft | 6 kts | 116° |
| 2026-05-06 02:38 | 20.52058 | -103.29775 | 5029 ft | 9 kts | 114° |
| 2026-05-06 02:38 | 20.52033 | -103.29710 | 5029 ft | 9 kts | 113° |
| 2026-05-06 02:38 | 20.52011 | -103.29651 | 5029 ft | 8 kts | 109° |
| 2026-05-06 02:38 | 20.51992 | -103.29598 | 5029 ft | 7 kts | 112° |
| 2026-05-06 02:39 | 20.51970 | -103.29554 | 5029 ft | 6 kts | 122° |
| 2026-05-06 02:39 | 20.51943 | -103.29511 | 5029 ft | 8 kts | 128° |
| 2026-05-06 02:39 | 20.51906 | -103.29465 | 5029 ft | 7 kts | 132° |
| 2026-05-06 02:39 | 20.51870 | -103.29418 | 5029 ft | 10 kts | 128° |
| 2026-05-06 02:40 | 20.51813 | -103.29341 | 5029 ft | 8 kts | 129° |
| 2026-05-06 02:40 | 20.51815 | -103.29344 | 5029 ft | 3 kts | 127° |
| 2026-05-06 02:40 | 20.51848 | -103.29390 | 5029 ft | 11 kts | 124° |
| 2026-05-06 02:40 | 20.51902 | -103.29476 | 5029 ft | 12 kts | 123° |
| 2026-05-06 02:41 | 20.51935 | -103.29509 | 5029 ft | 1 kts | 166° |
| 2026-05-06 02:41 | 20.51932 | -103.29509 | 5029 ft | 0 kts | 178° |
| 2026-05-06 02:41 | 20.51916 | -103.29514 | 5029 ft | 7 kts | 205° |
| 2026-05-06 02:42 | 20.51895 | -103.29528 | 5029 ft | 0 kts | 219° |
| 2026-05-06 02:42 | 20.51892 | -103.29531 | 5029 ft | 1 kts | 220° |
| 2026-05-06 02:42 | 20.51865 | -103.29555 | 5029 ft | 11 kts | 218° |
| 2026-05-06 02:42 | 20.51832 | -103.29633 | 5030 ft | 12 kts | 281° |
| 2026-05-06 02:43 | 20.51932 | -103.29880 | 5030 ft | 71 kts | 293° |
| 2026-05-06 02:43 | 20.52229 | -103.30589 | 5032 ft | 136 kts | 294° |
| 2026-05-06 02:43 | 20.52696 | -103.31692 | 5057 ft | 186 kts | 294° |
| 2026-05-06 02:43 | 20.53268 | -103.32951 | 5766 ft | 186 kts | 294° |
| 2026-05-06 02:44 | 20.53762 | -103.34212 | 6371 ft | 193 kts | 291° |
| 2026-05-06 02:44 | 20.54295 | -103.35659 | 6487 ft | 226 kts | 292° |
| 2026-05-06 02:44 | 20.54914 | -103.37251 | 7021 ft | 237 kts | 293° |
| 2026-05-06 02:44 | 20.55581 | -103.38907 | 7540 ft | 248 kts | 294° |
| 2026-05-06 02:45 | 20.56262 | -103.40579 | 8220 ft | 251 kts | 294° |
| 2026-05-06 02:45 | 20.56956 | -103.42303 | 8920 ft | 253 kts | 292° |
| 2026-05-06 02:45 | 20.57394 | -103.44113 | 9592 ft | 256 kts | 274° |
| 2026-05-06 02:45 | 20.57071 | -103.45960 | 10229 ft | 260 kts | 248° |
| 2026-05-06 02:46 | 20.56067 | -103.47586 | 10624 ft | 276 kts | 228° |
| 2026-05-06 02:46 | 20.54536 | -103.48909 | 11184 ft | 289 kts | 210° |
| 2026-05-06 02:46 | 20.52617 | -103.49638 | 11762 ft | 301 kts | 186° |
| 2026-05-06 02:46 | 20.50502 | -103.49359 | 12217 ft | 316 kts | 158° |
| 2026-05-06 02:47 | 20.48641 | -103.48056 | 12656 ft | 328 kts | 134° |
| 2026-05-06 02:47 | 20.47306 | -103.46040 | 13056 ft | 342 kts | 111° |